Daishinmaru No.3 — JM6362 — position and weather

sailwx.info

Track history (hours):
 
Tides and Currents Weather Stations Pressure Air Temp Water Temp Dewpoint Dewpoint Depression Visibility Wind Speed Wind Dir Waves Ship Positions

Daishinmaru No.3

Last reported at 2018-Feb-24 23:01 UTC. Time now 2018-Feb-25 03:59 UTC.
Position N 33°60' E 134°37'.

Length 70 m; draft 3.2 m.

Type: Cargo ship. MMSI: 431600252.

Date/timePositionNaut miles runAvg speedWind from/ knotsBaromVisibWave heightAir tempDewpointWater temp
2018-Feb-24 23:01N 33°60' E 134°37'0 8.1
2018-Feb-24 22:59N 34°00' E 134°37'1 2.0
2018-Feb-24 22:28N 34°01' E 134°37'0 0.0
2018-Feb-24 21:55N 34°01' E 134°37'0 0.0
2018-Feb-24 21:25N 34°01' E 134°37'0 0.0
2018-Feb-24 20:43N 34°01' E 134°37'12 9.5
2018-Feb-24 19:26N 34°07' E 134°50'511.5
2018-Feb-24 19:00N 34°10' E 134°54'611.4
2018-Feb-24 18:30N 34°13' E 135°01'511.0
2018-Feb-24 18:01N 34°14' E 135°07'1 1.4
2018-Feb-24 17:29N 34°14' E 135°08'0 0.0
2018-Feb-24 16:59N 34°14' E 135°08'0 0.0
2018-Feb-24 16:29N 34°14' E 135°08'0 0.0
2018-Feb-24 15:59N 34°14' E 135°08'0 0.0
2018-Feb-24 15:29N 34°14' E 135°08'0 0.0
2018-Feb-24 14:59N 34°14' E 135°08'0 0.0
2018-Feb-24 14:29N 34°14' E 135°08'0 0.0
2018-Feb-24 13:59N 34°14' E 135°08'0 0.0
2018-Feb-24 13:29N 34°14' E 135°08'0 0.0
2018-Feb-24 12:59N 34°14' E 135°08'0 0.0
2018-Feb-24 12:29N 34°14' E 135°08'0 0.0
2018-Feb-24 11:59N 34°14' E 135°08'0 0.0
2018-Feb-24 11:29N 34°14' E 135°08'0 0.0
2018-Feb-24 10:59N 34°14' E 135°08'0 0.0
2018-Feb-24 10:29N 34°14' E 135°08'0 0.0
2018-Feb-24 09:59N 34°14' E 135°08'0 0.0
2018-Feb-24 09:29N 34°14' E 135°08'1 1.2
2018-Feb-24 09:01N 34°14' E 135°07'1 1.8
2018-Feb-24 08:28N 34°15' E 135°06'0 0.0
2018-Feb-24 07:58N 34°15' E 135°06'0 0.0
2018-Feb-24 07:28N 34°15' E 135°06'0 0.0
2018-Feb-24 06:58N 34°15' E 135°06'0 0.0
2018-Feb-24 06:28N 34°15' E 135°06'0 0.0
2018-Feb-24 05:58N 34°15' E 135°06'0 0.0
2018-Feb-24 05:28N 34°15' E 135°06'0 0.1
2018-Feb-24 04:58N 34°15' E 135°06'0 0.1
2018-Feb-24 04:28N 34°15' E 135°06'0 0.1
2018-Feb-24 03:58N 34°15' E 135°06'0 0.0
2018-Feb-24 03:28N 34°15' E 135°06'0 0.0
2018-Feb-24 02:58N 34°15' E 135°06'0 0.0
2018-Feb-24 02:28N 34°15' E 135°06'0 0.1
2018-Feb-24 01:58N 34°15' E 135°06'0 0.0
2018-Feb-24 01:28N 34°15' E 135°06'0 0.0
2018-Feb-24 00:58N 34°15' E 135°06'0 0.0
2018-Feb-24 00:28N 34°15' E 135°06'0 0.0
2018-Feb-23 23:58N 34°15' E 135°06'0 0.0
2018-Feb-23 23:28N 34°15' E 135°06'0 0.0
2018-Feb-23 22:58N 34°15' E 135°06'0 0.0
2018-Feb-23 22:28N 34°15' E 135°06'0 0.0
2018-Feb-23 21:58N 34°15' E 135°06'0 0.0
2018-Feb-23 21:28N 34°15' E 135°06'0 0.0
2018-Feb-23 20:58N 34°15' E 135°06'0 0.0
2018-Feb-23 20:28N 34°15' E 135°06'0 0.0
2018-Feb-23 19:58N 34°15' E 135°06'0 0.0
2018-Feb-23 19:28N 34°15' E 135°06'0 0.0
2018-Feb-23 18:58N 34°15' E 135°06'0 0.0
2018-Feb-23 18:28N 34°15' E 135°06'0 0.0
2018-Feb-23 17:58N 34°15' E 135°06'0 0.0
2018-Feb-23 17:28N 34°15' E 135°06'0 0.0
2018-Feb-23 16:58N 34°15' E 135°06'0 0.6
2018-Feb-23 16:30N 34°15' E 135°06'5 9.8
2018-Feb-23 16:00N 34°10' E 135°04'510.9
2018-Feb-23 15:30N 34°05' E 135°03'510.9
2018-Feb-23 15:00N 33°59' E 135°02'611.2
2018-Feb-23 14:26N 33°53' E 135°02'98 6.7
2018-Feb-22 23:53N 34°29' E 136°52'1 1.6
2018-Feb-22 23:09N 34°30' E 136°51'0 0.0
2018-Feb-22 22:45N 34°30' E 136°51'0 0.0
2018-Feb-22 21:45N 34°30' E 136°51'0 0.0
2018-Feb-22 18:45N 34°30' E 136°51'0 0.0
2018-Feb-22 18:27N 34°30' E 136°51'0 0.0
2018-Feb-22 17:27N 34°30' E 136°51'0 0.0
2018-Feb-22 16:57N 34°30' E 136°51'0 0.0
2018-Feb-22 16:27N 34°30' E 136°51'0 0.0
2018-Feb-22 15:45N 34°30' E 136°51'0 0.0
2018-Feb-22 15:21N 34°30' E 136°51'0 0.0
2018-Feb-22 14:33N 34°30' E 136°51'0 0.0
2018-Feb-22 14:09N 34°30' E 136°51'0 0.0
2018-Feb-22 13:54N 34°30' E 136°51'97 8.0
2018-Feb-22 01:42N 33°50' E 135°04'211.1
2018-Feb-22 01:30N 33°52' E 135°02'711.2
2018-Feb-22 00:55N 33°59' E 135°02'511.7
2018-Feb-22 00:30N 34°03' E 135°03'510.5
2018-Feb-22 00:01N 34°08' E 135°05'3 5.1
2018-Feb-21 23:31N 34°09' E 135°08'0 0.0
2018-Feb-21 23:00N 34°09' E 135°08'0 0.0
2018-Feb-21 22:28N 34°09' E 135°08'0 0.0
2018-Feb-21 21:58N 34°09' E 135°08'0 0.0
2018-Feb-21 21:28N 34°09' E 135°08'0 0.0
2018-Feb-21 20:58N 34°09' E 135°08'0 0.0
2018-Feb-21 20:28N 34°09' E 135°08'0 0.1
2018-Feb-21 19:58N 34°09' E 135°08'0 0.0
2018-Feb-21 19:31N 34°09' E 135°08'510.4
2018-Feb-21 19:00N 34°13' E 135°05'2 4.9
2018-Feb-21 18:30N 34°14' E 135°08'0 0.0
2018-Feb-21 18:00N 34°14' E 135°08'0 0.0
2018-Feb-21 17:30N 34°14' E 135°08'0 0.0
2018-Feb-21 17:00N 34°14' E 135°08'0 0.0
2018-Feb-21 16:30N 34°14' E 135°08'0 0.0
2018-Feb-21 16:00N 34°14' E 135°08'0 0.0
2018-Feb-21 15:30N 34°14' E 135°08'0 0.0
2018-Feb-21 15:00N 34°14' E 135°08'0 0.0
2018-Feb-21 14:30N 34°14' E 135°08'0 0.0
2018-Feb-21 14:00N 34°14' E 135°08'0 0.0
2018-Feb-21 13:30N 34°14' E 135°08'0 0.0
2018-Feb-21 13:00N 34°14' E 135°08'0 0.0
2018-Feb-21 12:30N 34°14' E 135°08'0 0.0
2018-Feb-21 12:00N 34°14' E 135°08'0 0.0
2018-Feb-21 11:30N 34°14' E 135°08'0 0.0
2018-Feb-21 11:00N 34°14' E 135°08'1 2.9
2018-Feb-21 10:31N 34°14' E 135°06'4 7.3
2018-Feb-21 10:01N 34°11' E 135°04'510.1
2018-Feb-21 09:31N 34°06' E 135°02'5 9.7
2018-Feb-21 09:01N 34°02' E 135°02'5 9.7
2018-Feb-21 08:30N 33°57' E 135°02'6 9.5
2018-Feb-21 07:53N 33°51' E 135°03'171 8.8
2018-Feb-20 12:24N 34°31' E 138°25'10 6.3
2018-Feb-20 10:45N 34°30' E 138°37'11 7.9
2018-Feb-20 09:20N 34°32' E 138°51'3 8.4
2018-Feb-20 09:00N 34°32' E 138°54'510.0
2018-Feb-20 08:28N 34°33' E 139°00'4 9.7
2018-Feb-20 08:00N 34°35' E 139°06'5 9.3
2018-Feb-20 07:30N 34°36' E 139°11'5 9.1
2018-Feb-20 06:57N 34°37' E 139°17'6 9.7
2018-Feb-20 06:23N 34°38' E 139°24'4 9.5
2018-Feb-20 06:00N 34°39' E 139°28'33 8.8
2018-Feb-20 02:15N 34°56' E 140°03'4 8.3
2018-Feb-20 01:49N 34°58' E 140°06'404 9.8
2018-Feb-18 08:43N 41°36' E 141°29'310.2
2018-Feb-18 08:23N 41°40' E 141°27'410.6
2018-Feb-18 08:00N 41°43' E 141°26'710.8
2018-Feb-18 07:23N 41°50' E 141°23'5 0.1
2018-Feb-16 12:11N 41°51' E 141°30'511.1
2018-Feb-16 11:42N 41°45' E 141°29'210.9
2018-Feb-16 11:30N 41°43' E 141°29'611.5
2018-Feb-16 11:00N 41°37' E 141°28'612.0
2018-Feb-16 10:30N 41°32' E 141°27'610.8
2018-Feb-16 10:00N 41°26' E 141°25'2 3.4
2018-Feb-16 09:31N 41°25' E 141°26'0 0.0
2018-Feb-15 22:49N 41°25' E 141°26'1 2.6
2018-Feb-15 22:29N 41°25' E 141°25'1 1.4
2018-Feb-15 22:01N 41°26' E 141°26'1 2.7
2018-Feb-15 21:30N 41°27' E 141°26'32 7.6
2018-Feb-15 17:16N 40°55' E 141°24'33 1.8
2018-Feb-14 23:02N 41°28' E 141°29'  
Track history (hours):
 
Tides and Currents Weather Stations Pressure Air Temp Water Temp Dewpoint Dewpoint Depression Visibility Wind Speed Wind Dir Waves Ship Positions

Daishinmaru No.3

Last reported at 2018-Feb-24 23:01 UTC. Time now 2018-Feb-25 03:59 UTC.
Position N 33°60' E 134°37'.

Length 70 m; draft 3.2 m.

Type: Cargo ship. MMSI: 431600252.

Date/timePositionNaut miles runAvg speedWind from/ knotsBaromVisibWave heightAir tempDewpointWater temp
2018-Feb-24 23:01N 33°60' E 134°37'0 8.1
2018-Feb-24 22:59N 34°00' E 134°37'1 2.0
2018-Feb-24 22:28N 34°01' E 134°37'0 0.0
2018-Feb-24 21:55N 34°01' E 134°37'0 0.0
2018-Feb-24 21:25N 34°01' E 134°37'0 0.0
2018-Feb-24 20:43N 34°01' E 134°37'12 9.5
2018-Feb-24 19:26N 34°07' E 134°50'511.5
2018-Feb-24 19:00N 34°10' E 134°54'611.4
2018-Feb-24 18:30N 34°13' E 135°01'511.0
2018-Feb-24 18:01N 34°14' E 135°07'1 1.4
2018-Feb-24 17:29N 34°14' E 135°08'0 0.0
2018-Feb-24 16:59N 34°14' E 135°08'0 0.0
2018-Feb-24 16:29N 34°14' E 135°08'0 0.0
2018-Feb-24 15:59N 34°14' E 135°08'0 0.0
2018-Feb-24 15:29N 34°14' E 135°08'0 0.0
2018-Feb-24 14:59N 34°14' E 135°08'0 0.0
2018-Feb-24 14:29N 34°14' E 135°08'0 0.0
2018-Feb-24 13:59N 34°14' E 135°08'0 0.0
2018-Feb-24 13:29N 34°14' E 135°08'0 0.0
2018-Feb-24 12:59N 34°14' E 135°08'0 0.0
2018-Feb-24 12:29N 34°14' E 135°08'0 0.0
2018-Feb-24 11:59N 34°14' E 135°08'0 0.0
2018-Feb-24 11:29N 34°14' E 135°08'0 0.0
2018-Feb-24 10:59N 34°14' E 135°08'0 0.0
2018-Feb-24 10:29N 34°14' E 135°08'0 0.0
2018-Feb-24 09:59N 34°14' E 135°08'0 0.0
2018-Feb-24 09:29N 34°14' E 135°08'1 1.2
2018-Feb-24 09:01N 34°14' E 135°07'1 1.8
2018-Feb-24 08:28N 34°15' E 135°06'0 0.0
2018-Feb-24 07:58N 34°15' E 135°06'0 0.0
2018-Feb-24 07:28N 34°15' E 135°06'0 0.0
2018-Feb-24 06:58N 34°15' E 135°06'0 0.0
2018-Feb-24 06:28N 34°15' E 135°06'0 0.0
2018-Feb-24 05:58N 34°15' E 135°06'0 0.0
2018-Feb-24 05:28N 34°15' E 135°06'0 0.1
2018-Feb-24 04:58N 34°15' E 135°06'0 0.1
2018-Feb-24 04:28N 34°15' E 135°06'0 0.1
2018-Feb-24 03:58N 34°15' E 135°06'0 0.0
2018-Feb-24 03:28N 34°15' E 135°06'0 0.0
2018-Feb-24 02:58N 34°15' E 135°06'0 0.0
2018-Feb-24 02:28N 34°15' E 135°06'0 0.1
2018-Feb-24 01:58N 34°15' E 135°06'0 0.0
2018-Feb-24 01:28N 34°15' E 135°06'0 0.0
2018-Feb-24 00:58N 34°15' E 135°06'0 0.0
2018-Feb-24 00:28N 34°15' E 135°06'0 0.0
2018-Feb-23 23:58N 34°15' E 135°06'0 0.0
2018-Feb-23 23:28N 34°15' E 135°06'0 0.0
2018-Feb-23 22:58N 34°15' E 135°06'0 0.0
2018-Feb-23 22:28N 34°15' E 135°06'0 0.0
2018-Feb-23 21:58N 34°15' E 135°06'0 0.0
2018-Feb-23 21:28N 34°15' E 135°06'0 0.0
2018-Feb-23 20:58N 34°15' E 135°06'0 0.0
2018-Feb-23 20:28N 34°15' E 135°06'0 0.0
2018-Feb-23 19:58N 34°15' E 135°06'0 0.0
2018-Feb-23 19:28N 34°15' E 135°06'0 0.0
2018-Feb-23 18:58N 34°15' E 135°06'0 0.0
2018-Feb-23 18:28N 34°15' E 135°06'0 0.0
2018-Feb-23 17:58N 34°15' E 135°06'0 0.0
2018-Feb-23 17:28N 34°15' E 135°06'0 0.0
2018-Feb-23 16:58N 34°15' E 135°06'0 0.6
2018-Feb-23 16:30N 34°15' E 135°06'5 9.8
2018-Feb-23 16:00N 34°10' E 135°04'510.9
2018-Feb-23 15:30N 34°05' E 135°03'510.9
2018-Feb-23 15:00N 33°59' E 135°02'611.2
2018-Feb-23 14:26N 33°53' E 135°02'98 6.7
2018-Feb-22 23:53N 34°29' E 136°52'1 1.6
2018-Feb-22 23:09N 34°30' E 136°51'0 0.0
2018-Feb-22 22:45N 34°30' E 136°51'0 0.0
2018-Feb-22 21:45N 34°30' E 136°51'0 0.0
2018-Feb-22 18:45N 34°30' E 136°51'0 0.0
2018-Feb-22 18:27N 34°30' E 136°51'0 0.0
2018-Feb-22 17:27N 34°30' E 136°51'0 0.0
2018-Feb-22 16:57N 34°30' E 136°51'0 0.0
2018-Feb-22 16:27N 34°30' E 136°51'0 0.0
2018-Feb-22 15:45N 34°30' E 136°51'0 0.0
2018-Feb-22 15:21N 34°30' E 136°51'0 0.0
2018-Feb-22 14:33N 34°30' E 136°51'0 0.0
2018-Feb-22 14:09N 34°30' E 136°51'0 0.0
2018-Feb-22 13:54N 34°30' E 136°51'97 8.0
2018-Feb-22 01:42N 33°50' E 135°04'211.1
2018-Feb-22 01:30N 33°52' E 135°02'711.2
2018-Feb-22 00:55N 33°59' E 135°02'511.7
2018-Feb-22 00:30N 34°03' E 135°03'510.5
2018-Feb-22 00:01N 34°08' E 135°05'3 5.1
2018-Feb-21 23:31N 34°09' E 135°08'0 0.0
2018-Feb-21 23:00N 34°09' E 135°08'0 0.0
2018-Feb-21 22:28N 34°09' E 135°08'0 0.0
2018-Feb-21 21:58N 34°09' E 135°08'0 0.0
2018-Feb-21 21:28N 34°09' E 135°08'0 0.0
2018-Feb-21 20:58N 34°09' E 135°08'0 0.0
2018-Feb-21 20:28N 34°09' E 135°08'0 0.1
2018-Feb-21 19:58N 34°09' E 135°08'0 0.0
2018-Feb-21 19:31N 34°09' E 135°08'510.4
2018-Feb-21 19:00N 34°13' E 135°05'2 4.9
2018-Feb-21 18:30N 34°14' E 135°08'0 0.0
2018-Feb-21 18:00N 34°14' E 135°08'0 0.0
2018-Feb-21 17:30N 34°14' E 135°08'0 0.0
2018-Feb-21 17:00N 34°14' E 135°08'0 0.0
2018-Feb-21 16:30N 34°14' E 135°08'0 0.0
2018-Feb-21 16:00N 34°14' E 135°08'0 0.0
2018-Feb-21 15:30N 34°14' E 135°08'0 0.0
2018-Feb-21 15:00N 34°14' E 135°08'0 0.0
2018-Feb-21 14:30N 34°14' E 135°08'0 0.0
2018-Feb-21 14:00N 34°14' E 135°08'0 0.0
2018-Feb-21 13:30N 34°14' E 135°08'0 0.0
2018-Feb-21 13:00N 34°14' E 135°08'0 0.0
2018-Feb-21 12:30N 34°14' E 135°08'0 0.0
2018-Feb-21 12:00N 34°14' E 135°08'0 0.0
2018-Feb-21 11:30N 34°14' E 135°08'0 0.0
2018-Feb-21 11:00N 34°14' E 135°08'1 2.9
2018-Feb-21 10:31N 34°14' E 135°06'4 7.3
2018-Feb-21 10:01N 34°11' E 135°04'510.1
2018-Feb-21 09:31N 34°06' E 135°02'5 9.7
2018-Feb-21 09:01N 34°02' E 135°02'5 9.7
2018-Feb-21 08:30N 33°57' E 135°02'6 9.5
2018-Feb-21 07:53N 33°51' E 135°03'171 8.8
2018-Feb-20 12:24N 34°31' E 138°25'10 6.3
2018-Feb-20 10:45N 34°30' E 138°37'11 7.9
2018-Feb-20 09:20N 34°32' E 138°51'3 8.4
2018-Feb-20 09:00N 34°32' E 138°54'510.0
2018-Feb-20 08:28N 34°33' E 139°00'4 9.7
2018-Feb-20 08:00N 34°35' E 139°06'5 9.3
2018-Feb-20 07:30N 34°36' E 139°11'5 9.1
2018-Feb-20 06:57N 34°37' E 139°17'6 9.7
2018-Feb-20 06:23N 34°38' E 139°24'4 9.5
2018-Feb-20 06:00N 34°39' E 139°28'33 8.8
2018-Feb-20 02:15N 34°56' E 140°03'4 8.3
2018-Feb-20 01:49N 34°58' E 140°06'404 9.8
2018-Feb-18 08:43N 41°36' E 141°29'310.2
2018-Feb-18 08:23N 41°40' E 141°27'410.6
2018-Feb-18 08:00N 41°43' E 141°26'710.8
2018-Feb-18 07:23N 41°50' E 141°23'5 0.1
2018-Feb-16 12:11N 41°51' E 141°30'511.1
2018-Feb-16 11:42N 41°45' E 141°29'210.9
2018-Feb-16 11:30N 41°43' E 141°29'611.5
2018-Feb-16 11:00N 41°37' E 141°28'612.0
2018-Feb-16 10:30N 41°32' E 141°27'610.8
2018-Feb-16 10:00N 41°26' E 141°25'2 3.4
2018-Feb-16 09:31N 41°25' E 141°26'0 0.0
2018-Feb-15 22:49N 41°25' E 141°26'1 2.6
2018-Feb-15 22:29N 41°25' E 141°25'1 1.4
2018-Feb-15 22:01N 41°26' E 141°26'1 2.7
2018-Feb-15 21:30N 41°27' E 141°26'32 7.6
2018-Feb-15 17:16N 40°55' E 141°24'33 1.8
2018-Feb-14 23:02N 41°28' E 141°29'  

Dump ship's entire track history